Aérodrome :
LOGIN :

S'inscrire | Disclaimer

   EN    FR    IT 

 










Légende :    VFR   VFR Marginal   IFR   IFR Intensif   IFR Très Intensif
Visi : 
Plafond : 
>= 8 km
>= 3000ft
5 à 8 km
1000 à 3000 ft
1500m à 5 km
500 à 1000 ft
800 à 1500m
200 à 500 ft
< 800m
< 200 ft
Symboles :   Orages  Brouillard  Fortes neiges  Fortes précipitations  Vent > 20 kt
SIGMETs :   Divers  Orages  Givrage  Turbulence  Onde Orograph.  Cendres Volcan.







- Altitude de l'aérodrome : 0 ft


ETEB - Ansbach Army Heliport

DERNIER METAR :
  • 141656Z AUTO 27005KT 9999 FEW100 20/13 A3003 RMK AO2 SLP171 T01980125 $

METARs EXPIRÉS :
  • 141556Z AUTO 27008G15KT 9999 FEW065 19/13 A3003 RMK AO2 SLP171 T01940126 $
  • 141456Z AUTO 29010KT 9999 FEW046 SCT060 21/11 A3003 RMK AO2 SLP169 T02100108 53007 $

TAF AMD TAF ETEB
Valide du 14 à 13h jusqu'au 15 à 19h UTC


141324Z 1413/1519 28012KT 9999 BKN060 QNH2999INS
BECMG 1501/1502 27006KT 6000 BR BKN020 QNH3002INS
BECMG 1509/1510 VRB06KT 9000 -SHRA BKN030 QNH3016INS
BECMG 1512/1513 28009KT 9999 NSW SCT040 QNH3013INS TX24/1513Z TN15/1504Z
Pas de NOTAMs connus pour ce terrain.



MET'MAP, la Météo Aéronautique d'un coup d'oeil ! - Copyright ORBIFLY Décembre 2007 - Disclaimer

ORBIFLY MET'MAP TEAM :

Programmation & Développement : Alexandra Zaïnal
Conception & Développement : Baudouin d'Aumeries
Co-Programmation & Développement : Marc-Olivier Méhu
Soutien technique & logistique : Manuel Goepfert

Contact : metmap@orbifly.com




SOURCES & CREDITS :

   NOAA